Time;durP1;ratioP1;P1;durP2;ratioP2;P2;SDS_P1;SDS_P2;PMS_P1;PMS_P2;Temp;Humidity;BMP_temperature;BMP_pressure;BME280_temperature;BME280_humidity;BME280_pressure;Samples;Min_cycle;Max_cycle;Signal;HPM_P1;HPM_P2
2021/11/25 00:00:38;;;;;;;72.53;40.83;;;7.90;99.90;;;;;;5019177;28;38031;-76
2021/11/25 00:03:05;;;;;;;72.30;38.47;;;7.90;99.90;;;;;;5016174;28;38763;-76
2021/11/25 00:05:31;;;;;;;75.60;40.27;;;7.80;99.90;;;;;;5035797;28;40413;-75
2021/11/25 00:07:57;;;;;;;70.30;40.17;;;7.90;99.90;;;;;;5017689;28;37674;-75
2021/11/25 00:10:23;;;;;;;77.50;41.60;;;7.90;99.90;;;;;;5037239;28;36662;-75
2021/11/25 00:12:53;;;;;;;70.47;38.77;;;7.90;99.90;;;;;;5037274;28;37132;-75
2021/11/25 00:15:21;;;;;;;67.43;40.03;;;7.80;99.90;;;;;;5018574;28;38050;-75
2021/11/25 00:17:47;;;;;;;68.77;39.03;;;7.80;99.90;;;;;;5036287;28;39013;-75
2021/11/25 00:20:14;;;;;;;76.57;43.00;;;7.80;99.90;;;;;;5019538;28;37599;-75
2021/11/25 00:22:42;;;;;;;74.40;40.93;;;7.80;99.90;;;;;;5021818;28;37313;-75
2021/11/25 00:25:09;;;;;;;80.73;43.10;;;7.90;99.90;;;;;;5036826;28;39433;-76
2021/11/25 00:27:36;;;;;;;67.43;39.43;;;7.80;99.90;;;;;;5037591;28;39476;-76
2021/11/25 00:30:04;;;;;;;70.00;39.33;;;7.90;99.90;;;;;;5038503;28;38987;-76
2021/11/25 00:32:30;;;;;;;83.70;43.90;;;7.90;99.90;;;;;;5036427;28;37061;-75
2021/11/25 00:34:56;;;;;;;75.17;41.17;;;7.90;99.90;;;;;;5035952;28;37281;-75
2021/11/25 00:37:23;;;;;;;73.57;40.83;;;7.80;99.90;;;;;;5017078;28;38912;-75
2021/11/25 00:39:49;;;;;;;74.30;40.63;;;7.80;99.90;;;;;;5019792;28;38275;-76
2021/11/25 00:42:15;;;;;;;79.30;41.70;;;7.80;99.90;;;;;;5020054;28;36253;-75
2021/11/25 00:44:41;;;;;;;71.80;39.07;;;7.80;99.90;;;;;;5036605;28;39909;-76
2021/11/25 00:47:07;;;;;;;77.77;40.40;;;7.80;99.90;;;;;;5018912;28;37913;-76
2021/11/25 00:49:33;;;;;;;76.40;39.73;;;7.80;99.90;;;;;;5024135;28;37451;-76
2021/11/25 00:51:59;;;;;;;73.47;39.90;;;7.80;99.90;;;;;;5032011;27;37467;-75
2021/11/25 00:54:25;;;;;;;75.60;42.43;;;7.80;99.90;;;;;;5036211;28;38781;-76
2021/11/25 00:56:52;;;;;;;80.77;43.20;;;7.70;99.90;;;;;;5032351;28;39215;-76
2021/11/25 00:59:18;;;;;;;74.13;40.30;;;7.70;99.90;;;;;;5016146;28;37481;-75
2021/11/25 01:01:44;;;;;;;80.47;44.10;;;7.70;99.90;;;;;;5037542;28;37389;-75
2021/11/25 01:04:10;;;;;;;88.17;43.17;;;7.70;99.90;;;;;;5032345;28;41365;-75
2021/11/25 01:06:36;;;;;;;84.83;44.23;;;7.70;99.90;;;;;;5035657;28;39729;-75
2021/11/25 01:09:04;;;;;;;72.10;41.40;;;7.70;99.90;;;;;;5037124;28;39274;-75
2021/11/25 01:11:30;;;;;;;83.73;43.03;;;7.70;99.90;;;;;;5017808;28;37024;-74
2021/11/25 01:13:56;;;;;;;87.03;42.50;;;7.70;99.90;;;;;;5036653;28;38594;-74
2021/11/25 01:16:23;;;;;;;79.40;42.00;;;7.70;99.90;;;;;;5018225;28;37805;-74
2021/11/25 01:18:50;;;;;;;83.30;43.23;;;7.70;99.90;;;;;;5036259;28;37667;-74
2021/11/25 01:21:16;;;;;;;82.13;42.93;;;7.70;99.90;;;;;;5021500;28;36072;-74
2021/11/25 01:23:43;;;;;;;79.53;40.07;;;7.60;99.90;;;;;;5040860;28;37609;-74
2021/11/25 01:26:09;;;;;;;70.47;38.30;;;7.60;99.90;;;;;;5033439;28;38176;-74
2021/11/25 01:28:35;;;;;;;71.60;38.97;;;7.60;99.90;;;;;;5035377;28;37438;-74
2021/11/25 01:31:02;;;;;;;75.20;36.30;;;7.60;99.90;;;;;;5017456;28;37810;-75
2021/11/25 01:33:30;;;;;;;72.20;37.50;;;7.60;99.90;;;;;;5037384;28;38739;-74
2021/11/25 01:35:58;;;;;;;70.27;36.33;;;7.60;99.90;;;;;;5017503;28;38689;-75
2021/11/25 01:38:25;;;;;;;65.67;35.57;;;7.60;99.90;;;;;;5037017;28;38009;-76
2021/11/25 01:40:53;;;;;;;62.63;34.80;;;7.60;99.90;;;;;;5019303;28;36543;-74
2021/11/25 01:43:22;;;;;;;65.33;35.67;;;7.60;99.90;;;;;;5021692;28;37934;-77
2021/11/25 01:45:53;;;;;;;56.93;32.73;;;7.60;99.90;;;;;;5024772;28;37586;-74
2021/11/25 01:48:20;;;;;;;61.03;33.17;;;7.60;99.90;;;;;;5035372;28;38852;-75
2021/11/25 01:50:49;;;;;;;59.60;32.87;;;7.60;99.90;;;;;;5039683;27;37333;-74
2021/11/25 01:53:16;;;;;;;61.60;32.73;;;7.60;99.90;;;;;;5021126;28;37869;-74
2021/11/25 01:55:43;;;;;;;58.37;32.93;;;7.60;99.90;;;;;;5040422;28;38747;-77
2021/11/25 01:58:09;;;;;;;52.50;29.60;;;7.60;99.90;;;;;;5042155;28;39441;-75
2021/11/25 02:00:52;;;;;;;53.43;30.70;;;7.60;99.90;;;;;;5036611;28;36773;-75
2021/11/25 02:03:19;;;;;;;55.80;30.33;;;7.60;99.90;;;;;;5023029;28;38257;-76
2021/11/25 02:05:46;;;;;;;51.77;28.07;;;7.60;99.90;;;;;;5021859;28;37697;-75
2021/11/25 02:08:12;;;;;;;48.63;28.53;;;7.60;99.90;;;;;;5040171;28;38759;-75
2021/11/25 02:10:43;;;;;;;49.37;28.37;;;7.60;99.90;;;;;;5040538;27;37258;-75
2021/11/25 02:13:09;;;;;;;53.23;29.97;;;7.50;99.90;;;;;;5023318;28;37613;-75
2021/11/25 02:15:37;;;;;;;57.50;28.97;;;7.60;99.90;;;;;;5020403;28;38077;-76
2021/11/25 02:18:10;;;;;;;47.80;29.20;;;7.60;99.90;;;;;;5020578;28;37327;-75
2021/11/25 02:20:38;;;;;;;50.17;29.93;;;7.50;99.90;;;;;;5037865;27;37266;-75
2021/11/25 02:23:06;;;;;;;51.03;28.70;;;7.50;99.90;;;;;;5038980;28;38598;-75
2021/11/25 02:25:33;;;;;;;53.10;29.30;;;7.50;99.90;;;;;;5015036;28;39835;-75
2021/11/25 02:27:59;;;;;;;53.83;31.17;;;7.50;99.90;;;;;;5046726;28;37639;-76
2021/11/25 02:30:25;;;;;;;54.80;30.53;;;7.50;99.90;;;;;;5038427;27;37418;-76
2021/11/25 02:32:52;;;;;;;57.37;33.03;;;7.50;99.90;;;;;;5037806;28;39133;-75
2021/11/25 02:35:20;;;;;;;65.97;34.77;;;7.40;99.90;;;;;;5021143;28;40350;-75
2021/11/25 02:37:49;;;;;;;70.20;36.67;;;7.40;99.90;;;;;;5041106;28;39610;-75
2021/11/25 02:40:26;;;;;;;62.57;33.67;;;7.40;99.90;;;;;;5018913;28;36481;-75
2021/11/25 02:42:55;;;;;;;67.40;36.37;;;7.40;99.90;;;;;;5036646;28;38798;-76
2021/11/25 02:45:24;;;;;;;61.97;34.60;;;7.40;99.90;;;;;;5039328;28;39317;-75
2021/11/25 02:47:51;;;;;;;69.67;36.63;;;7.40;99.90;;;;;;5023413;28;39439;-77
2021/11/25 02:50:19;;;;;;;61.67;35.80;;;7.30;99.90;;;;;;5044601;28;37758;-75
2021/11/25 02:52:46;;;;;;;71.87;37.13;;;7.40;99.90;;;;;;5038854;28;39915;-75
2021/11/25 02:55:14;;;;;;;66.53;36.73;;;7.40;99.90;;;;;;5018446;28;37343;-75
2021/11/25 02:57:40;;;;;;;65.80;36.57;;;7.40;99.90;;;;;;5021351;28;38760;-76
2021/11/25 03:00:14;;;;;;;70.63;37.90;;;7.40;99.90;;;;;;5040446;28;39117;-76
2021/11/25 03:02:40;;;;;;;71.77;38.10;;;7.40;99.90;;;;;;5019483;28;47172;-77
2021/11/25 03:05:09;;;;;;;87.10;43.57;;;7.30;99.90;;;;;;5040280;28;39588;-77
2021/11/25 03:07:35;;;;;;;83.80;42.43;;;7.30;99.90;;;;;;5036385;28;38328;-78
2021/11/25 03:10:01;;;;;;;75.43;40.27;;;7.30;99.90;;;;;;5039112;28;36698;-78
2021/11/25 03:12:27;;;;;;;101.00;49.37;;;7.20;99.90;;;;;;5039299;28;39625;-78
2021/11/25 03:14:53;;;;;;;87.30;45.77;;;7.20;99.90;;;;;;5041954;28;38561;-78
2021/11/25 03:17:19;;;;;;;82.50;42.87;;;7.30;99.90;;;;;;5019045;28;37908;-78
2021/11/25 03:19:45;;;;;;;79.30;42.43;;;7.20;99.90;;;;;;5043320;28;37461;-78
2021/11/25 03:22:11;;;;;;;79.93;41.90;;;7.20;99.90;;;;;;5041947;27;38723;-79
2021/11/25 03:24:37;;;;;;;84.93;43.10;;;7.20;99.90;;;;;;5042078;28;39403;-78
2021/11/25 03:27:04;;;;;;;79.57;40.97;;;7.30;99.90;;;;;;5039170;27;39526;-78
2021/11/25 03:29:30;;;;;;;82.70;44.43;;;7.30;99.90;;;;;;5043976;28;36558;-78
2021/11/25 03:31:57;;;;;;;94.67;46.07;;;7.30;99.90;;;;;;5025925;28;37969;-77
2021/11/25 03:34:23;;;;;;;93.80;47.57;;;7.20;99.90;;;;;;5026189;28;39258;-78
2021/11/25 03:36:49;;;;;;;83.57;42.60;;;7.30;99.90;;;;;;5039850;28;38471;-78
2021/11/25 03:39:15;;;;;;;99.27;47.00;;;7.30;99.90;;;;;;5043560;28;38036;-78
2021/11/25 03:41:41;;;;;;;98.37;47.50;;;7.20;99.90;;;;;;5040518;28;37127;-78
2021/11/25 03:44:07;;;;;;;108.67;50.17;;;7.20;99.90;;;;;;5027113;28;39170;-78
2021/11/25 03:46:35;;;;;;;101.73;47.23;;;7.20;99.90;;;;;;5023108;28;37741;-77
2021/11/25 03:49:02;;;;;;;97.83;47.13;;;7.30;99.90;;;;;;5024318;28;36361;-79
2021/11/25 03:51:29;;;;;;;100.93;48.13;;;7.20;99.90;;;;;;5038545;27;38696;-79
2021/11/25 03:53:55;;;;;;;105.50;48.77;;;7.20;99.90;;;;;;5022849;28;38968;-78
2021/11/25 03:56:21;;;;;;;101.47;47.70;;;7.30;99.90;;;;;;5021932;28;37764;-78
2021/11/25 03:58:48;;;;;;;106.40;50.73;;;7.30;99.90;;;;;;5040951;28;37699;-78
2021/11/25 04:01:16;;;;;;;119.47;50.77;;;7.30;99.90;;;;;;5018411;28;37983;-79
2021/11/25 04:03:43;;;;;;;103.40;49.03;;;7.20;99.90;;;;;;5037931;28;38991;-78
2021/11/25 04:06:09;;;;;;;99.50;48.60;;;7.20;99.90;;;;;;5038234;28;39240;-77
2021/11/25 04:08:35;;;;;;;115.37;51.37;;;7.20;99.90;;;;;;5022472;28;37379;-78
2021/11/25 04:11:02;;;;;;;121.57;52.67;;;7.10;99.90;;;;;;5036402;28;37598;-77
2021/11/25 04:13:28;;;;;;;111.03;51.23;;;7.10;99.90;;;;;;5033458;28;39153;-78
2021/11/25 04:15:54;;;;;;;110.87;52.17;;;7.10;99.90;;;;;;5039575;28;38832;-78
2021/11/25 04:18:20;;;;;;;130.00;53.67;;;7.10;99.90;;;;;;5038500;28;36893;-78
2021/11/25 04:20:47;;;;;;;126.43;54.93;;;7.00;99.90;;;;;;5020851;28;37866;-78
2021/11/25 04:23:13;;;;;;;127.80;53.73;;;7.00;99.90;;;;;;5019752;28;37837;-78
2021/11/25 04:25:39;;;;;;;113.93;51.57;;;7.00;99.90;;;;;;5021142;28;37623;-78
2021/11/25 04:28:07;;;;;;;141.93;59.03;;;7.00;99.90;;;;;;5021359;28;38326;-79
2021/11/25 04:30:51;;;;;;;147.07;57.97;;;7.00;99.90;;;;;;5041238;27;37457;-78
2021/11/25 04:36:01;;;;;;;125.57;55.17;;;7.10;99.90;;;;;;5036662;28;39044;-77
2021/11/25 04:38:28;;;;;;;143.77;59.17;;;7.20;99.90;;;;;;5038118;28;36906;-78
2021/11/25 04:41:02;;;;;;;122.53;53.10;;;7.20;99.90;;;;;;5018819;28;38976;-77
2021/11/25 04:43:29;;;;;;;144.33;57.57;;;7.20;99.90;;;;;;5036792;28;37595;-77
2021/11/25 04:45:56;;;;;;;171.33;62.73;;;7.30;99.90;;;;;;5023078;28;37694;-77
2021/11/25 04:48:23;;;;;;;122.47;53.77;;;7.20;99.90;;;;;;5023986;28;36411;-77
2021/11/25 04:50:50;;;;;;;132.93;56.13;;;7.20;99.90;;;;;;5022184;28;39192;-77
2021/11/25 04:53:17;;;;;;;147.17;57.30;;;7.20;99.90;;;;;;5020796;28;38692;-77
2021/11/25 04:55:43;;;;;;;114.70;50.10;;;7.10;99.90;;;;;;5022885;28;37950;-77
2021/11/25 04:58:10;;;;;;;119.90;52.87;;;7.00;99.90;;;;;;5023785;28;36622;-78
2021/11/25 05:00:37;;;;;;;171.47;60.30;;;6.90;99.90;;;;;;5039824;28;38509;-77
2021/11/25 05:03:03;;;;;;;131.73;55.10;;;6.80;99.90;;;;;;5017644;28;38917;-78
2021/11/25 05:05:30;;;;;;;110.70;50.70;;;6.80;99.90;;;;;;5020377;28;37796;-77
2021/11/25 05:07:56;;;;;;;105.27;48.70;;;6.80;99.90;;;;;;5039783;28;37362;-78
2021/11/25 05:10:22;;;;;;;108.30;50.23;;;6.70;99.90;;;;;;5020973;27;37805;-78
2021/11/25 05:12:49;;;;;;;130.43;55.70;;;6.70;99.90;;;;;;5020113;28;36910;-78
2021/11/25 05:15:16;;;;;;;179.17;63.67;;;6.60;99.90;;;;;;5022050;28;38879;-77
2021/11/25 05:17:42;;;;;;;152.43;57.27;;;6.50;99.90;;;;;;5040473;28;38707;-78
2021/11/25 05:20:11;;;;;;;116.83;52.17;;;6.50;99.90;;;;;;5042064;27;39694;-78
2021/11/25 05:22:38;;;;;;;141.10;57.23;;;6.50;99.90;;;;;;5039993;28;39798;-78
2021/11/25 05:25:06;;;;;;;150.23;58.33;;;6.60;99.90;;;;;;5021424;28;39102;-77
2021/11/25 05:27:32;;;;;;;137.80;56.53;;;6.60;99.90;;;;;;5023997;28;47701;-78
2021/11/25 05:29:58;;;;;;;165.33;61.47;;;6.70;99.90;;;;;;5039151;28;38954;-78
2021/11/25 05:32:24;;;;;;;151.13;58.47;;;6.80;99.90;;;;;;5041134;28;37656;-77
2021/11/25 05:34:50;;;;;;;159.63;61.33;;;6.90;99.90;;;;;;5040773;28;38107;-78
2021/11/25 05:37:18;;;;;;;158.43;61.03;;;7.00;99.90;;;;;;5037859;28;37442;-78
2021/11/25 05:39:44;;;;;;;170.93;62.50;;;7.00;99.90;;;;;;5020031;28;38713;-77
2021/11/25 05:42:10;;;;;;;191.27;66.87;;;7.10;99.90;;;;;;5039711;28;39168;-78
2021/11/25 05:44:37;;;;;;;164.60;61.50;;;7.10;99.90;;;;;;5038197;28;38642;-78
2021/11/25 05:47:04;;;;;;;182.77;66.33;;;7.10;99.90;;;;;;5039182;28;38325;-78
2021/11/25 05:49:30;;;;;;;157.57;61.37;;;7.10;99.90;;;;;;5025245;28;37887;-78
2021/11/25 05:51:56;;;;;;;153.50;62.70;;;7.10;99.90;;;;;;5021813;28;39107;-78
2021/11/25 05:54:22;;;;;;;181.80;66.20;;;7.10;99.90;;;;;;5024556;28;38609;-78
2021/11/25 05:56:49;;;;;;;126.60;55.97;;;7.20;99.90;;;;;;5021103;28;38633;-78
2021/11/25 05:59:15;;;;;;;135.10;57.13;;;7.20;99.90;;;;;;5041091;28;38436;-77
2021/11/25 06:01:41;;;;;;;210.20;69.57;;;7.20;99.90;;;;;;5037860;28;39174;-77
2021/11/25 06:04:07;;;;;;;170.70;61.90;;;7.20;99.90;;;;;;5021995;28;38151;-77
2021/11/25 06:06:33;;;;;;;153.13;60.83;;;7.20;99.90;;;;;;5034366;28;36227;-77
2021/11/25 06:08:59;;;;;;;187.30;68.53;;;7.20;99.90;;;;;;5026565;28;37999;-78
2021/11/25 06:11:25;;;;;;;196.97;66.90;;;7.20;99.90;;;;;;5039996;28;38643;-78
2021/11/25 06:13:52;;;;;;;203.60;67.70;;;7.20;99.90;;;;;;5037636;28;39672;-78
2021/11/25 06:16:18;;;;;;;215.90;69.53;;;7.30;99.90;;;;;;5018698;28;36721;-78
2021/11/25 06:18:44;;;;;;;174.87;62.77;;;7.30;99.90;;;;;;5017753;28;39427;-76
2021/11/25 06:21:10;;;;;;;157.60;60.00;;;7.20;99.90;;;;;;5022194;28;38567;-78
2021/11/25 06:23:36;;;;;;;150.47;58.33;;;7.20;99.90;;;;;;5017433;28;38265;-77
2021/11/25 06:26:02;;;;;;;138.07;55.90;;;7.20;99.90;;;;;;5033728;28;37051;-78
2021/11/25 06:28:29;;;;;;;153.30;57.70;;;7.20;99.90;;;;;;5042807;28;37842;-77
2021/11/25 06:30:55;;;;;;;143.43;57.67;;;7.20;99.90;;;;;;5040471;28;39508;-76
2021/11/25 06:33:21;;;;;;;130.00;56.00;;;7.20;99.90;;;;;;5021408;28;40084;-77
2021/11/25 06:35:47;;;;;;;125.03;54.23;;;7.20;99.90;;;;;;5022778;28;37271;-77
2021/11/25 06:38:13;;;;;;;132.37;56.37;;;7.30;99.90;;;;;;5019046;28;37873;-78
2021/11/25 06:40:39;;;;;;;166.90;60.30;;;7.20;99.90;;;;;;5020627;28;38412;-77
2021/11/25 06:43:07;;;;;;;134.53;55.47;;;7.20;99.90;;;;;;5027170;28;38232;-76
2021/11/25 06:45:35;;;;;;;128.53;54.17;;;7.10;99.90;;;;;;5028400;28;36141;-78
2021/11/25 06:48:01;;;;;;;192.67;64.57;;;7.10;99.90;;;;;;5043066;28;38913;-82
2021/11/25 06:50:27;;;;;;;151.20;58.43;;;7.10;99.90;;;;;;5053920;28;37768;-80
2021/11/25 06:52:54;;;;;;;170.70;61.63;;;7.00;99.90;;;;;;5047002;28;37516;-80
2021/11/25 06:55:21;;;;;;;202.47;67.60;;;7.10;99.90;;;;;;5037189;28;37977;-78
2021/11/25 06:57:52;;;;;;;203.40;68.20;;;7.00;99.90;;;;;;5032964;28;37841;-78
2021/11/25 07:00:22;;;;;;;197.60;69.00;;;7.00;99.90;;;;;;5028120;28;37979;-77
2021/11/25 07:02:49;;;;;;;175.67;63.10;;;7.00;99.90;;;;;;5042774;28;38521;-78
2021/11/25 07:05:15;;;;;;;192.70;66.93;;;7.10;99.90;;;;;;5022722;28;36768;-78
2021/11/25 07:07:43;;;;;;;164.67;62.50;;;7.10;99.90;;;;;;5043120;28;38844;-79
2021/11/25 07:10:09;;;;;;;203.03;66.87;;;7.10;99.90;;;;;;5020713;27;37931;-75
2021/11/25 07:12:36;;;;;;;215.23;67.57;;;7.20;99.90;;;;;;5021968;28;37371;-76
2021/11/25 07:15:04;;;;;;;274.07;77.03;;;7.20;99.90;;;;;;5033136;28;36234;-76
2021/11/25 07:17:31;;;;;;;203.00;69.43;;;7.20;99.90;;;;;;5038753;28;47570;-75
2021/11/25 07:19:57;;;;;;;213.37;69.97;;;7.30;99.90;;;;;;5018679;28;39341;-77
2021/11/25 07:22:25;;;;;;;154.33;62.77;;;7.30;99.90;;;;;;5030716;27;38618;-76
2021/11/25 07:24:52;;;;;;;177.43;63.80;;;7.30;99.90;;;;;;5018539;28;36651;-77
2021/11/25 07:27:18;;;;;;;180.03;65.40;;;7.40;99.90;;;;;;5019684;28;40339;-77
2021/11/25 07:29:44;;;;;;;180.70;66.03;;;7.40;99.90;;;;;;5021561;28;37504;-76
2021/11/25 07:32:11;;;;;;;200.20;68.13;;;7.40;99.90;;;;;;5024248;27;38444;-77
2021/11/25 07:34:37;;;;;;;210.40;67.83;;;7.50;99.90;;;;;;5022420;28;36614;-78
2021/11/25 07:37:03;;;;;;;208.50;67.33;;;7.50;99.90;;;;;;5019621;28;39389;-78
2021/11/25 07:39:30;;;;;;;165.97;59.67;;;7.60;99.90;;;;;;5037408;28;39396;-78
2021/11/25 07:41:56;;;;;;;190.67;64.20;;;7.70;99.90;;;;;;5033918;28;39355;-77
2021/11/25 07:44:22;;;;;;;157.30;57.70;;;7.70;99.90;;;;;;5019049;28;37763;-77
2021/11/25 07:46:48;;;;;;;143.27;55.77;;;7.80;99.90;;;;;;5017673;28;37581;-78
2021/11/25 07:49:14;;;;;;;140.60;55.17;;;7.80;99.90;;;;;;5038484;28;39697;-77
2021/11/25 07:51:41;;;;;;;160.60;56.20;;;7.90;99.90;;;;;;5019787;28;37828;-77
2021/11/25 07:54:09;;;;;;;118.80;48.23;;;7.90;99.90;;;;;;5042343;28;37247;-77
2021/11/25 07:56:36;;;;;;;188.10;58.70;;;8.00;99.90;;;;;;5020060;28;38057;-77
2021/11/25 07:59:02;;;;;;;131.53;50.60;;;8.00;99.90;;;;;;5005323;28;40291;-78
2021/11/25 08:01:28;;;;;;;143.90;51.77;;;8.00;99.90;;;;;;4998440;28;37388;-78
2021/11/25 08:03:54;;;;;;;161.13;54.07;;;8.10;99.90;;;;;;5010476;28;37307;-76
2021/11/25 08:06:21;;;;;;;139.07;49.73;;;8.10;99.90;;;;;;5031390;28;38422;-78
2021/11/25 08:08:47;;;;;;;135.57;49.70;;;8.20;99.90;;;;;;5011977;28;38082;-78
2021/11/25 08:13:43;;;;;;;138.37;49.23;;;8.30;99.90;;;;;;5044858;28;20045;-74
2021/11/25 08:16:14;;;;;;;114.10;43.17;;;8.30;99.90;;;;;;5051005;27;38752;-75
2021/11/25 08:18:41;;;;;;;105.27;42.13;;;8.30;99.90;;;;;;5052806;28;37563;-74
2021/11/25 08:21:07;;;;;;;132.07;50.03;;;8.40;99.90;;;;;;5045071;27;37740;-74
2021/11/25 08:23:34;;;;;;;116.83;43.20;;;8.40;99.90;;;;;;5043056;28;37668;-74
2021/11/25 08:26:00;;;;;;;109.57;43.53;;;8.40;99.90;;;;;;5050041;28;39599;-74
2021/11/25 08:28:26;;;;;;;135.97;44.47;;;8.50;99.90;;;;;;5051822;28;39985;-74
2021/11/25 08:30:53;;;;;;;107.33;41.10;;;8.60;99.90;;;;;;5033896;28;37423;-74
2021/11/25 08:33:20;;;;;;;86.77;38.67;;;8.60;99.90;;;;;;5047845;28;37958;-74
2021/11/25 08:35:48;;;;;;;61.43;28.97;;;8.80;99.90;;;;;;5030197;28;39934;-74
2021/11/25 08:38:15;;;;;;;46.93;25.67;;;8.90;99.90;;;;;;5043671;28;39860;-75
2021/11/25 08:40:41;;;;;;;78.57;32.33;;;9.00;99.90;;;;;;5048769;27;38245;-76
2021/11/25 08:43:08;;;;;;;47.87;22.37;;;9.10;99.90;;;;;;5028582;28;36099;-74
2021/11/25 08:45:34;;;;;;;23.73;11.67;;;9.30;99.90;;;;;;5053424;27;40210;-74
2021/11/25 08:48:02;;;;;;;12.07;7.10;;;9.30;99.90;;;;;;5055277;28;39839;-73
2021/11/25 08:50:30;;;;;;;13.33;6.73;;;9.30;99.90;;;;;;5022498;28;46084;-74
2021/11/25 08:52:57;;;;;;;13.83;7.00;;;9.30;99.90;;;;;;5053432;28;37874;-74
2021/11/25 08:55:24;;;;;;;19.03;8.63;;;9.30;99.90;;;;;;5034825;27;41223;-74
2021/11/25 08:57:50;;;;;;;21.57;9.67;;;9.30;99.90;;;;;;5033329;28;40328;-74
2021/11/25 09:00:17;;;;;;;16.27;8.77;;;9.40;99.90;;;;;;5033411;28;38473;-74
2021/11/25 09:02:43;;;;;;;20.20;9.00;;;9.40;99.90;;;;;;5051429;28;36227;-73
2021/11/25 09:05:11;;;;;;;17.43;8.57;;;9.40;99.90;;;;;;5053030;28;37960;-74
2021/11/25 09:07:39;;;;;;;17.77;9.30;;;9.40;99.90;;;;;;5033092;28;39533;-74
2021/11/25 09:10:06;;;;;;;14.87;7.73;;;9.40;99.90;;;;;;5055397;27;40012;-74
2021/11/25 09:12:32;;;;;;;16.83;9.23;;;9.40;99.90;;;;;;5051072;28;37250;-74
2021/11/25 09:14:58;;;;;;;20.37;9.47;;;9.50;99.90;;;;;;5049546;28;38613;-74
2021/11/25 09:17:24;;;;;;;20.47;8.10;;;9.50;99.90;;;;;;5046342;27;38789;-75
2021/11/25 09:19:50;;;;;;;19.97;7.87;;;9.60;99.90;;;;;;5049177;28;38907;-75
2021/11/25 09:22:16;;;;;;;22.70;8.50;;;9.60;99.90;;;;;;5046147;27;35605;-74
2021/11/25 09:24:43;;;;;;;15.50;6.90;;;9.70;99.90;;;;;;5051220;28;39706;-75
2021/11/25 09:27:09;;;;;;;15.60;6.23;;;9.70;99.90;;;;;;5052513;27;38558;-74
2021/11/25 09:29:35;;;;;;;22.07;6.27;;;9.70;99.90;;;;;;5034106;28;39647;-74
2021/11/25 09:32:03;;;;;;;17.97;6.70;;;9.70;99.90;;;;;;5056245;27;37377;-74
2021/11/25 09:34:29;;;;;;;17.30;5.47;;;9.70;99.90;;;;;;5053725;28;48778;-74
2021/11/25 09:36:55;;;;;;;19.30;5.53;;;9.70;99.90;;;;;;5036626;28;38671;-76
2021/11/25 09:39:25;;;;;;;19.00;5.60;;;9.80;99.90;;;;;;5029918;28;37807;-74
2021/11/25 09:41:55;;;;;;;19.47;5.60;;;9.70;99.90;;;;;;5055042;28;38033;-75
2021/11/25 09:44:22;;;;;;;17.53;4.13;;;9.70;99.90;;;;;;5038659;28;38708;-75
2021/11/25 09:46:53;;;;;;;23.97;4.73;;;9.80;99.90;;;;;;5033468;28;38353;-75
2021/11/25 09:49:22;;;;;;;12.77;3.47;;;9.80;99.90;;;;;;5039945;28;37225;-74
2021/11/25 09:51:49;;;;;;;12.10;3.63;;;9.90;99.90;;;;;;5033225;28;37731;-75
2021/11/25 09:54:16;;;;;;;11.90;3.90;;;9.90;99.90;;;;;;5045959;28;39173;-75
2021/11/25 09:56:42;;;;;;;13.33;3.80;;;10.00;99.90;;;;;;5052610;28;39841;-76
2021/11/25 09:59:08;;;;;;;13.07;3.80;;;10.00;99.90;;;;;;5040070;28;38758;-76
2021/11/25 10:01:34;;;;;;;7.83;2.50;;;10.10;99.90;;;;;;5037043;28;37822;-76
2021/11/25 10:04:01;;;;;;;20.23;4.57;;;10.10;99.90;;;;;;5053415;28;38973;-77
2021/11/25 10:06:33;;;;;;;12.20;2.70;;;10.10;99.90;;;;;;5061959;28;48685;-75
2021/11/25 10:08:59;;;;;;;19.63;4.27;;;10.10;99.90;;;;;;5056058;28;38505;-75
2021/11/25 10:11:37;;;;;;;14.70;3.07;;;10.00;99.90;;;;;;5042408;28;37644;-75
2021/11/25 10:14:15;;;;;;;11.10;2.73;;;9.90;99.90;;;;;;5043197;28;40628;-74
2021/11/25 10:16:50;;;;;;;8.23;2.23;;;9.90;99.90;;;;;;5040688;28;39599;-75
2021/11/25 10:19:18;;;;;;;13.83;2.50;;;9.70;99.90;;;;;;5042380;28;38719;-75
2021/11/25 10:21:53;;;;;;;12.83;2.97;;;9.60;99.90;;;;;;5036329;28;37541;-74
2021/11/25 10:24:38;;;;;;;12.97;2.67;;;9.50;99.90;;;;;;5061237;27;39906;-75
2021/11/25 10:27:25;;;;;;;11.43;2.40;;;9.50;99.90;;;;;;5036162;28;38902;-75
2021/11/25 10:30:12;;;;;;;15.60;2.63;;;9.50;99.90;;;;;;5045685;28;40352;-75
2021/11/25 10:32:38;;;;;;;11.03;2.67;;;9.50;99.90;;;;;;5060693;28;48836;-75
2021/11/25 10:35:29;;;;;;;14.37;2.50;;;9.60;99.90;;;;;;5058841;28;38389;-75
2021/11/25 10:40:34;;;;;;;7.30;1.67;;;9.90;99.90;;;;;;5053893;28;49358;-75
2021/11/25 10:43:22;;;;;;;7.00;1.97;;;10.00;99.90;;;;;;5038601;28;38107;-74
2021/11/25 10:45:50;;;;;;;8.17;1.57;;;10.10;99.90;;;;;;5040340;28;46842;-74
2021/11/25 10:48:29;;;;;;;11.00;1.53;;;10.30;99.90;;;;;;5057646;28;40212;-74
2021/11/25 10:50:55;;;;;;;19.27;2.87;;;10.30;99.90;;;;;;5040653;28;37509;-75
2021/11/25 10:53:21;;;;;;;9.17;1.23;;;10.40;99.90;;;;;;5063549;28;36363;-77
2021/11/25 10:55:47;;;;;;;9.60;1.47;;;10.40;99.90;;;;;;5032824;28;39282;-76
2021/11/25 10:58:14;;;;;;;10.93;1.47;;;10.40;99.90;;;;;;5068291;28;39606;-78
2021/11/25 11:00:43;;;;;;;14.97;2.37;;;10.40;99.90;;;;;;5056291;28;39298;-76
2021/11/25 11:03:19;;;;;;;8.47;1.63;;;10.30;99.90;;;;;;5060698;28;37664;-76
2021/11/25 11:06:03;;;;;;;10.57;1.80;;;10.30;99.90;;;;;;5052386;28;38830;-79
2021/11/25 11:08:42;;;;;;;10.50;1.57;;;10.30;99.90;;;;;;5060931;28;48387;-78
2021/11/25 11:11:10;;;;;;;11.10;2.33;;;10.30;99.90;;;;;;5056309;28;38831;-77
2021/11/25 11:21:50;;;;;;;11.77;1.77;;;10.50;99.90;;;;;;5041515;28;38782;-79
2021/11/25 11:24:19;;;;;;;10.33;2.40;;;10.60;99.90;;;;;;5023842;28;38067;-80
2021/11/25 11:26:50;;;;;;;12.77;1.47;;;10.70;99.90;;;;;;5035592;28;39449;-80
2021/11/25 11:29:19;;;;;;;12.97;2.13;;;10.70;99.90;;;;;;5014644;28;39150;-80
2021/11/25 11:31:48;;;;;;;14.63;2.10;;;10.80;99.90;;;;;;5032176;28;39068;-80
2021/11/25 11:34:15;;;;;;;10.90;2.07;;;10.80;99.90;;;;;;5015903;28;38659;-80
2021/11/25 11:36:44;;;;;;;10.43;1.73;;;10.90;99.90;;;;;;5037449;28;38644;-80
2021/11/25 11:39:14;;;;;;;12.30;1.63;;;10.80;99.90;;;;;;5038991;28;39624;-80
2021/11/25 11:41:42;;;;;;;8.83;1.57;;;10.60;99.90;;;;;;5032992;28;38282;-80
2021/11/25 11:44:09;;;;;;;9.40;1.60;;;10.60;99.90;;;;;;5028601;28;37340;-80
2021/11/25 11:46:36;;;;;;;9.77;1.33;;;10.60;99.90;;;;;;5037652;28;39412;-80
2021/11/25 11:49:05;;;;;;;9.60;1.60;;;10.70;99.90;;;;;;5019450;28;39675;-79
2021/11/25 11:51:32;;;;;;;6.00;1.13;;;10.60;99.90;;;;;;5040223;28;38170;-80
2021/11/25 11:53:59;;;;;;;7.03;1.30;;;10.80;99.90;;;;;;5037363;28;37117;-80
2021/11/25 11:56:40;;;;;;;6.23;1.47;;;10.90;99.90;;;;;;5034336;28;39550;-81
2021/11/25 11:59:08;;;;;;;8.63;1.33;;;11.00;99.90;;;;;;5013073;28;39539;-80
2021/11/25 12:01:34;;;;;;;13.30;2.20;;;11.00;99.90;;;;;;5031715;28;38571;-80
2021/11/25 12:04:04;;;;;;;8.27;1.50;;;11.10;99.90;;;;;;5028968;28;40711;-80
2021/11/25 12:06:40;;;;;;;8.13;1.70;;;11.10;99.90;;;;;;5027781;28;47764;-80
2021/11/25 12:09:14;;;;;;;10.70;1.40;;;11.20;99.90;;;;;;5022715;28;40302;-80
2021/11/25 12:11:56;;;;;;;15.03;2.10;;;11.20;99.90;;;;;;5038550;28;39424;-80
2021/11/25 12:14:23;;;;;;;8.10;1.80;;;11.20;99.90;;;;;;5037587;28;38000;-81
2021/11/25 12:16:56;;;;;;;9.30;1.70;;;11.20;99.90;;;;;;5029708;28;39758;-80
2021/11/25 12:19:28;;;;;;;7.27;1.73;;;11.20;99.90;;;;;;5039782;28;36824;-81
2021/11/25 12:21:57;;;;;;;10.77;1.58;;;11.30;99.90;;;;;;5038705;28;39227;-80
2021/11/25 12:24:26;;;;;;;11.70;1.93;;;11.30;99.90;;;;;;5033359;28;37453;-80
2021/11/25 12:27:31;;;;;;;12.00;2.07;;;11.20;99.90;;;;;;5019392;28;39824;-80
2021/11/25 12:29:58;;;;;;;10.13;1.70;;;11.20;99.90;;;;;;5064177;28;49002;-80
2021/11/25 12:34:57;;;;;;;9.87;1.87;;;11.20;99.90;;;;;;5057668;27;36116;-81
2021/11/25 12:37:42;;;;;;;11.70;1.70;;;11.10;99.90;;;;;;5020092;28;39587;-80
2021/11/25 12:40:17;;;;;;;10.00;2.43;;;11.10;99.90;;;;;;5032277;28;39448;-81
2021/11/25 12:42:43;;;;;;;11.03;1.67;;;11.10;99.90;;;;;;5037689;28;38319;-81
2021/11/25 12:45:30;;;;;;;10.00;2.27;;;11.10;99.90;;;;;;5033004;28;37582;-80
2021/11/25 12:48:05;;;;;;;9.00;1.40;;;11.10;99.90;;;;;;5032228;28;39664;-81
2021/11/25 12:50:35;;;;;;;10.33;1.97;;;11.20;99.90;;;;;;5040369;28;48263;-80
2021/11/25 12:53:17;;;;;;;6.67;1.30;;;11.20;99.90;;;;;;5033913;28;38306;-81
2021/11/25 12:55:55;;;;;;;9.02;2.15;;;11.30;99.90;;;;;;5033552;28;39992;-80
2021/11/25 12:58:41;;;;;;;8.50;1.77;;;11.40;99.90;;;;;;5031501;28;39458;-81